Time;durP1;ratioP1;P1;durP2;ratioP2;P2;SDS_P1;SDS_P2;PMS_P1;PMS_P2;Temp;Humidity;BMP_temperature;BMP_pressure;BME280_temperature;BME280_humidity;BME280_pressure;Samples;Min_cycle;Max_cycle;Signal;HPM_P1;HPM_P2
2023/01/06 00:01:18;;;;;;;1.83;1.00;;;8.10;99.90;;;;;;5019414;28;20766;-71
2023/01/06 00:03:49;;;;;;;2.00;1.13;;;8.10;99.90;;;;;;5028236;28;20530;-69
2023/01/06 00:06:15;;;;;;;4.20;1.90;;;8.10;99.90;;;;;;5033665;28;20419;-70
2023/01/06 00:08:41;;;;;;;3.90;1.30;;;8.10;99.90;;;;;;5033011;28;20776;-71
2023/01/06 00:11:11;;;;;;;3.90;1.33;;;8.00;99.90;;;;;;5032852;28;20220;-72
2023/01/06 00:13:38;;;;;;;2.80;1.17;;;7.90;99.90;;;;;;5032955;28;20602;-72
2023/01/06 00:16:14;;;;;;;4.60;1.77;;;7.90;99.90;;;;;;5033137;28;20422;-72
2023/01/06 00:18:40;;;;;;;9.07;2.67;;;7.80;99.90;;;;;;5020324;28;20421;-72
2023/01/06 00:21:06;;;;;;;8.40;3.23;;;7.80;99.90;;;;;;5023898;28;20418;-72
2023/01/06 00:23:33;;;;;;;14.63;3.40;;;7.70;99.90;;;;;;5021215;28;20971;-72
2023/01/06 00:25:58;;;;;;;11.10;2.80;;;7.80;99.90;;;;;;5030382;28;20514;-72
2023/01/06 00:28:24;;;;;;;4.27;1.70;;;7.70;99.90;;;;;;5023184;28;20453;-72
2023/01/06 00:30:50;;;;;;;3.00;1.20;;;7.70;99.90;;;;;;5033117;28;20202;-72
2023/01/06 00:33:16;;;;;;;1.77;1.00;;;7.80;99.90;;;;;;5033877;28;20186;-72
2023/01/06 00:35:41;;;;;;;1.60;1.10;;;7.80;99.90;;;;;;5034060;28;20265;-72
2023/01/06 00:38:07;;;;;;;2.30;1.53;;;7.80;99.90;;;;;;5033551;28;20971;-72
2023/01/06 00:40:33;;;;;;;2.47;1.13;;;7.80;99.90;;;;;;5033094;28;20214;-72
2023/01/06 00:42:58;;;;;;;4.33;1.70;;;7.80;99.90;;;;;;5032806;28;20241;-73
2023/01/06 00:45:24;;;;;;;1.77;1.20;;;7.80;99.90;;;;;;5032777;28;20182;-72
2023/01/06 00:47:50;;;;;;;3.10;1.10;;;7.80;99.90;;;;;;5033082;28;20631;-72
2023/01/06 00:50:15;;;;;;;4.00;1.10;;;7.90;99.90;;;;;;5030814;28;20216;-72
2023/01/06 00:52:41;;;;;;;2.40;1.27;;;7.80;99.90;;;;;;5031746;28;20239;-72
2023/01/06 00:55:07;;;;;;;2.67;1.10;;;7.80;99.90;;;;;;5032059;28;20193;-72
2023/01/06 00:57:32;;;;;;;1.50;0.90;;;7.80;99.90;;;;;;5016023;28;20198;-72
2023/01/06 00:59:58;;;;;;;2.03;0.90;;;7.80;99.90;;;;;;5011425;28;20505;-72
2023/01/06 01:02:24;;;;;;;2.00;1.17;;;7.80;99.90;;;;;;5025802;28;20677;-72
2023/01/06 01:04:49;;;;;;;3.20;1.43;;;7.80;99.90;;;;;;5031723;28;20194;-72
2023/01/06 01:07:15;;;;;;;3.03;1.00;;;7.80;99.90;;;;;;5031848;28;20194;-72
2023/01/06 01:09:41;;;;;;;2.80;1.13;;;7.80;99.90;;;;;;5030897;28;20696;-72
2023/01/06 01:12:11;;;;;;;2.67;1.10;;;7.80;99.90;;;;;;5031412;28;20428;-72
2023/01/06 01:14:52;;;;;;;2.00;1.17;;;7.80;99.90;;;;;;5031086;28;20209;-73
2023/01/06 01:17:29;;;;;;;2.83;1.20;;;7.90;99.90;;;;;;5031487;28;20421;-72
2023/01/06 01:19:56;;;;;;;2.17;1.30;;;7.90;99.90;;;;;;5031191;28;20425;-72
2023/01/06 01:22:24;;;;;;;2.20;1.20;;;7.90;99.90;;;;;;5005133;28;20786;-72
2023/01/06 01:24:49;;;;;;;1.83;0.93;;;7.80;99.90;;;;;;5030442;28;20437;-72
2023/01/06 01:27:15;;;;;;;4.37;1.10;;;7.90;99.90;;;;;;5017537;28;20436;-71
2023/01/06 01:29:41;;;;;;;4.77;1.67;;;7.90;99.90;;;;;;5025806;28;20210;-73
2023/01/06 01:32:07;;;;;;;2.13;0.97;;;7.90;99.90;;;;;;5031347;28;20421;-70
2023/01/06 01:34:33;;;;;;;6.23;2.40;;;7.90;99.90;;;;;;5030126;28;20191;-70
2023/01/06 01:36:59;;;;;;;7.30;1.90;;;7.90;99.90;;;;;;5031208;28;20855;-70
2023/01/06 01:39:26;;;;;;;5.93;2.30;;;7.90;99.90;;;;;;5031206;28;20197;-72
2023/01/06 01:41:53;;;;;;;6.87;1.70;;;7.90;99.90;;;;;;5023198;28;20203;-72
2023/01/06 01:44:58;;;;;;;6.63;2.00;;;8.00;99.90;;;;;;5024086;28;20451;-72
2023/01/06 01:47:32;;;;;;;3.00;1.67;;;8.00;99.90;;;;;;5024656;28;20961;-72
2023/01/06 01:50:11;;;;;;;2.87;1.33;;;8.00;99.90;;;;;;5030959;28;20575;-72
2023/01/06 01:52:38;;;;;;;4.23;1.23;;;8.00;99.90;;;;;;5030916;28;20421;-72
2023/01/06 01:55:06;;;;;;;3.57;1.80;;;8.00;99.90;;;;;;5031033;28;20765;-72
2023/01/06 01:57:37;;;;;;;1.60;1.00;;;8.10;99.90;;;;;;5017840;28;20450;-72
2023/01/06 02:00:07;;;;;;;2.90;1.20;;;8.10;99.90;;;;;;5011779;28;20418;-72
2023/01/06 02:02:33;;;;;;;4.13;1.43;;;8.10;99.90;;;;;;5017821;28;20909;-72
2023/01/06 02:04:59;;;;;;;2.43;1.10;;;8.20;99.90;;;;;;5020131;28;20513;-72
2023/01/06 02:07:26;;;;;;;1.67;0.73;;;8.20;99.90;;;;;;5028621;28;20480;-72
2023/01/06 02:10:15;;;;;;;3.20;1.43;;;8.20;99.90;;;;;;5030199;28;20860;-72
2023/01/06 02:12:43;;;;;;;2.20;1.07;;;8.20;99.90;;;;;;5030857;28;20413;-72
2023/01/06 02:15:15;;;;;;;4.93;1.07;;;8.20;99.90;;;;;;5029934;28;20516;-72
2023/01/06 02:18:18;;;;;;;2.33;1.10;;;8.20;99.90;;;;;;5030980;28;20421;-72
2023/01/06 02:20:49;;;;;;;2.03;1.30;;;8.30;99.90;;;;;;5030308;28;20443;-73
2023/01/06 02:23:35;;;;;;;4.30;1.00;;;8.30;99.90;;;;;;5030173;28;20555;-72
2023/01/06 02:26:13;;;;;;;2.20;0.80;;;8.30;99.90;;;;;;5019630;28;20427;-72
2023/01/06 02:28:50;;;;;;;3.37;1.33;;;8.30;99.90;;;;;;5030205;28;20482;-72
2023/01/06 02:31:37;;;;;;;2.07;0.87;;;8.30;99.90;;;;;;5016648;28;20450;-72
2023/01/06 02:34:16;;;;;;;2.23;1.27;;;8.30;99.90;;;;;;5030661;28;20525;-72
2023/01/06 02:37:05;;;;;;;1.77;1.03;;;8.40;99.90;;;;;;5030492;28;20420;-72
2023/01/06 02:39:46;;;;;;;1.70;0.93;;;8.30;99.90;;;;;;5017309;28;20772;-73
2023/01/06 02:42:46;;;;;;;2.47;1.17;;;8.40;99.90;;;;;;5030062;28;20649;-72
2023/01/06 02:45:27;;;;;;;3.03;1.23;;;8.30;99.90;;;;;;4998547;28;20460;-72
2023/01/06 02:48:14;;;;;;;2.20;1.00;;;8.30;99.90;;;;;;5030940;28;20419;-72
2023/01/06 02:50:56;;;;;;;2.63;1.23;;;8.30;99.90;;;;;;5034156;28;20471;-72
2023/01/06 02:53:47;;;;;;;1.70;0.80;;;8.30;99.90;;;;;;5034138;28;20418;-72
2023/01/06 02:56:13;;;;;;;1.40;0.80;;;8.20;99.90;;;;;;5028055;28;20418;-72
2023/01/06 02:59:05;;;;;;;2.33;1.07;;;8.30;99.90;;;;;;5019827;28;20497;-72
2023/01/06 03:01:37;;;;;;;2.70;0.80;;;8.30;99.90;;;;;;5002595;28;20894;-72
2023/01/06 03:04:07;;;;;;;4.03;1.20;;;8.30;99.90;;;;;;5030009;28;20445;-72
2023/01/06 03:06:36;;;;;;;2.07;0.90;;;8.30;99.90;;;;;;5034423;28;20808;-72
2023/01/06 03:09:04;;;;;;;3.03;1.27;;;8.20;99.90;;;;;;5034238;28;20445;-70
2023/01/06 03:11:32;;;;;;;1.80;0.93;;;8.20;99.90;;;;;;5024220;28;20514;-70
2023/01/06 03:14:17;;;;;;;4.30;1.07;;;8.10;99.90;;;;;;5031494;28;20458;-70
2023/01/06 03:16:43;;;;;;;2.80;1.23;;;8.00;99.90;;;;;;5033520;28;20435;-72
2023/01/06 03:19:09;;;;;;;2.20;1.00;;;8.00;99.90;;;;;;5033776;28;20425;-72
2023/01/06 03:21:39;;;;;;;2.00;1.00;;;7.90;99.90;;;;;;5019495;28;20234;-72
2023/01/06 03:24:06;;;;;;;1.93;1.20;;;7.80;99.90;;;;;;5032916;28;20201;-72
2023/01/06 03:26:34;;;;;;;3.20;0.97;;;7.80;99.90;;;;;;5020436;28;20430;-70
2023/01/06 03:29:00;;;;;;;1.93;1.10;;;7.80;99.90;;;;;;5025903;28;20455;-70
2023/01/06 03:31:31;;;;;;;1.57;0.90;;;7.80;99.90;;;;;;5033170;28;20452;-70
2023/01/06 03:34:05;;;;;;;5.57;1.30;;;7.70;99.90;;;;;;5033318;28;20413;-70
2023/01/06 03:36:39;;;;;;;2.37;1.40;;;7.60;99.90;;;;;;5033313;28;20694;-70
2023/01/06 03:39:14;;;;;;;3.93;1.57;;;7.60;99.90;;;;;;5033459;28;20972;-71
2023/01/06 03:44:35;;;;;;;5.10;1.70;;;7.60;99.90;;;;;;5017842;28;20909;-71
2023/01/06 03:47:13;;;;;;;2.60;1.50;;;7.60;99.90;;;;;;5024034;28;20430;-71
2023/01/06 03:49:51;;;;;;;2.17;1.17;;;7.50;99.90;;;;;;5033209;28;20475;-71
2023/01/06 03:52:44;;;;;;;3.13;1.47;;;7.50;99.90;;;;;;5033357;28;20412;-71
2023/01/06 03:55:24;;;;;;;2.03;0.80;;;7.60;99.90;;;;;;5033349;28;20421;-71
2023/01/06 03:57:53;;;;;;;3.87;1.73;;;7.50;99.90;;;;;;5019676;28;20413;-71
2023/01/06 04:00:27;;;;;;;1.43;0.87;;;7.60;99.90;;;;;;5013120;28;20414;-71
2023/01/06 04:02:53;;;;;;;2.67;1.40;;;7.50;99.90;;;;;;5016111;28;20943;-72
2023/01/06 04:05:26;;;;;;;3.30;1.13;;;7.40;99.90;;;;;;5033229;28;20478;-70
2023/01/06 04:07:52;;;;;;;2.23;1.10;;;7.50;99.90;;;;;;5009643;28;20448;-71
2023/01/06 04:10:20;;;;;;;2.53;1.57;;;7.40;99.90;;;;;;5032306;28;20460;-71
2023/01/06 04:12:46;;;;;;;4.57;1.70;;;7.40;99.90;;;;;;5033088;28;20265;-71
2023/01/06 04:15:13;;;;;;;4.80;1.53;;;7.40;99.90;;;;;;5033336;28;20535;-70
2023/01/06 04:17:39;;;;;;;1.70;1.10;;;7.30;99.90;;;;;;5026825;28;20179;-71
2023/01/06 04:20:07;;;;;;;1.50;0.90;;;7.40;99.90;;;;;;5029053;28;20503;-71
2023/01/06 04:22:33;;;;;;;2.37;1.00;;;7.30;99.90;;;;;;5034023;28;20424;-70
2023/01/06 04:24:59;;;;;;;4.10;1.33;;;7.40;99.90;;;;;;5034367;28;20417;-71
2023/01/06 04:27:24;;;;;;;1.93;1.20;;;7.40;99.90;;;;;;5020274;28;20468;-71
2023/01/06 04:29:50;;;;;;;2.00;1.23;;;7.30;99.90;;;;;;5032188;28;20206;-71
2023/01/06 04:32:16;;;;;;;2.10;1.40;;;7.30;99.90;;;;;;5043602;28;20682;-71
2023/01/06 04:34:41;;;;;;;2.10;1.47;;;7.20;99.90;;;;;;5028820;28;20193;-70
2023/01/06 04:37:07;;;;;;;2.37;1.27;;;7.20;99.90;;;;;;5025577;28;20230;-71
2023/01/06 04:39:32;;;;;;;3.17;1.20;;;7.20;99.90;;;;;;5022400;28;20203;-71
2023/01/06 04:41:58;;;;;;;14.90;1.63;;;7.10;99.90;;;;;;5017329;28;20205;-71
2023/01/06 04:44:24;;;;;;;7.43;2.30;;;7.10;99.90;;;;;;5029170;28;20228;-71
2023/01/06 04:46:49;;;;;;;3.30;1.80;;;7.10;99.90;;;;;;5014968;28;20664;-71
2023/01/06 04:49:15;;;;;;;2.70;1.43;;;7.10;99.90;;;;;;5028212;28;20571;-71
2023/01/06 04:51:41;;;;;;;8.37;1.87;;;7.10;99.90;;;;;;5032350;28;20669;-71
2023/01/06 04:54:06;;;;;;;3.20;1.70;;;7.10;99.90;;;;;;5025126;28;20743;-71
2023/01/06 04:56:32;;;;;;;3.20;1.10;;;7.20;99.90;;;;;;5025092;28;20183;-71
2023/01/06 04:58:58;;;;;;;2.70;1.30;;;7.30;99.90;;;;;;5018566;28;20585;-71
2023/01/06 05:01:24;;;;;;;1.93;1.07;;;7.30;99.90;;;;;;5017091;28;20262;-71
2023/01/06 05:03:50;;;;;;;2.70;1.60;;;7.30;99.90;;;;;;5027256;28;20182;-71
2023/01/06 05:06:16;;;;;;;2.13;1.33;;;7.40;99.90;;;;;;5032289;28;20428;-71
2023/01/06 05:08:42;;;;;;;1.40;0.90;;;7.40;99.90;;;;;;5019228;28;20640;-72
2023/01/06 05:11:15;;;;;;;2.87;1.47;;;7.50;99.90;;;;;;5031092;28;20222;-72
2023/01/06 05:13:41;;;;;;;2.33;1.20;;;7.50;99.90;;;;;;5031957;28;20428;-72
2023/01/06 05:16:13;;;;;;;3.00;1.33;;;7.50;99.90;;;;;;5031940;28;20759;-72
2023/01/06 05:18:38;;;;;;;1.83;1.00;;;7.50;99.90;;;;;;5032624;28;20186;-71
2023/01/06 05:21:04;;;;;;;3.80;1.47;;;7.60;99.90;;;;;;5022392;28;20426;-71
2023/01/06 05:23:30;;;;;;;1.77;0.93;;;7.60;99.90;;;;;;5029014;28;20190;-71
2023/01/06 05:25:56;;;;;;;2.23;1.23;;;7.60;99.90;;;;;;5022054;28;20270;-72
2023/01/06 05:28:21;;;;;;;2.40;1.30;;;7.60;99.90;;;;;;5017974;28;20647;-72
2023/01/06 05:30:47;;;;;;;2.70;1.63;;;7.60;99.90;;;;;;5022263;28;20214;-71
2023/01/06 05:33:13;;;;;;;4.60;1.00;;;7.60;99.90;;;;;;5031537;28;20182;-72
2023/01/06 05:35:39;;;;;;;2.00;1.00;;;7.60;99.90;;;;;;5021373;28;20739;-72
2023/01/06 05:38:04;;;;;;;3.17;1.47;;;7.60;99.90;;;;;;5029262;28;20182;-72
2023/01/06 05:40:30;;;;;;;2.10;1.40;;;7.60;99.90;;;;;;5031892;28;20186;-71
2023/01/06 05:42:57;;;;;;;3.50;1.07;;;7.60;99.90;;;;;;5031111;28;20573;-72
2023/01/06 05:45:23;;;;;;;3.30;1.57;;;7.60;99.90;;;;;;5021800;28;20265;-72
2023/01/06 05:47:49;;;;;;;2.63;1.20;;;7.60;99.90;;;;;;5029335;28;20516;-71
2023/01/06 05:50:15;;;;;;;2.27;1.13;;;7.60;99.90;;;;;;5031778;28;20460;-71
2023/01/06 05:52:41;;;;;;;1.60;0.90;;;7.60;99.90;;;;;;5031539;28;20424;-72
2023/01/06 05:55:07;;;;;;;4.00;1.30;;;7.60;99.90;;;;;;5031715;28;20189;-72
2023/01/06 05:57:34;;;;;;;2.33;1.00;;;7.60;99.90;;;;;;5019926;28;20237;-71
2023/01/06 05:59:59;;;;;;;3.63;1.50;;;7.60;99.90;;;;;;5013503;28;20423;-71
2023/01/06 06:02:25;;;;;;;2.13;1.00;;;7.50;99.90;;;;;;5021877;28;20900;-72
2023/01/06 06:04:51;;;;;;;1.63;1.07;;;7.50;99.90;;;;;;5031860;28;20256;-72
2023/01/06 06:07:16;;;;;;;2.10;1.00;;;7.40;99.90;;;;;;5031904;28;20736;-72
2023/01/06 06:09:42;;;;;;;3.17;1.50;;;7.40;99.90;;;;;;5030439;28;20741;-72
2023/01/06 06:12:08;;;;;;;3.00;1.23;;;7.40;99.90;;;;;;5031351;28;20191;-72
2023/01/06 06:14:33;;;;;;;2.23;1.17;;;7.30;99.90;;;;;;5020741;28;20270;-72
2023/01/06 06:16:59;;;;;;;2.13;1.00;;;7.30;99.90;;;;;;5028954;28;20185;-71
2023/01/06 06:19:24;;;;;;;2.30;1.20;;;7.20;99.90;;;;;;5031512;28;20205;-71
2023/01/06 06:21:51;;;;;;;2.20;1.17;;;7.20;99.90;;;;;;5020611;28;20269;-72
2023/01/06 06:24:17;;;;;;;1.60;0.80;;;7.30;99.90;;;;;;5027660;28;20736;-72
2023/01/06 06:26:44;;;;;;;1.80;1.10;;;7.30;99.90;;;;;;5022323;28;20483;-72
2023/01/06 06:29:10;;;;;;;1.70;0.90;;;7.20;99.90;;;;;;5035196;28;20861;-72
2023/01/06 06:31:36;;;;;;;1.60;0.90;;;7.20;99.90;;;;;;5035221;28;20182;-72
2023/01/06 06:34:02;;;;;;;2.20;1.23;;;7.20;99.90;;;;;;5035454;28;20175;-72
2023/01/06 06:36:29;;;;;;;1.90;1.30;;;7.20;99.90;;;;;;5035115;28;20186;-72
2023/01/06 06:38:56;;;;;;;2.57;1.10;;;7.20;99.90;;;;;;5025236;28;20893;-72
2023/01/06 06:41:23;;;;;;;3.50;1.20;;;7.20;99.90;;;;;;5032136;28;20429;-71
2023/01/06 06:43:50;;;;;;;5.00;1.50;;;7.20;99.90;;;;;;5024981;28;21097;-72
2023/01/06 06:46:15;;;;;;;1.77;0.77;;;7.30;99.90;;;;;;5018154;28;20436;-72
2023/01/06 06:48:41;;;;;;;4.03;1.20;;;7.30;99.90;;;;;;5035475;28;20877;-72
2023/01/06 06:51:13;;;;;;;1.20;0.70;;;7.40;99.90;;;;;;5021266;28;20230;-72
2023/01/06 06:53:40;;;;;;;1.80;0.87;;;7.50;99.90;;;;;;5024243;28;20222;-72
2023/01/06 06:56:06;;;;;;;3.70;1.40;;;7.50;99.90;;;;;;5028736;28;20463;-72
2023/01/06 06:58:33;;;;;;;2.67;1.30;;;7.50;99.90;;;;;;5020438;28;20513;-72
2023/01/06 07:01:12;;;;;;;3.63;1.33;;;7.60;99.90;;;;;;5018661;28;20456;-71
2023/01/06 07:03:38;;;;;;;5.63;2.07;;;7.70;99.90;;;;;;5020511;28;20484;-72
2023/01/06 07:06:06;;;;;;;2.67;1.30;;;7.80;99.90;;;;;;5034270;28;20425;-72
2023/01/06 07:08:32;;;;;;;4.27;1.70;;;7.80;99.90;;;;;;5034943;28;20447;-72
2023/01/06 07:10:58;;;;;;;2.30;1.30;;;7.80;99.90;;;;;;5033432;28;20465;-72
2023/01/06 07:13:23;;;;;;;1.63;1.03;;;7.90;99.90;;;;;;5034040;28;20470;-72
2023/01/06 07:15:49;;;;;;;1.87;1.30;;;8.00;99.90;;;;;;5033854;28;20211;-71
2023/01/06 07:18:14;;;;;;;1.30;0.70;;;8.00;99.90;;;;;;5035240;28;20186;-71
2023/01/06 07:20:40;;;;;;;2.40;1.00;;;8.10;99.90;;;;;;5034091;28;20525;-72
2023/01/06 07:23:06;;;;;;;1.90;1.00;;;8.20;99.90;;;;;;5025303;28;20198;-72
2023/01/06 07:25:32;;;;;;;6.80;1.70;;;8.20;99.90;;;;;;5027085;28;20182;-71
2023/01/06 07:28:04;;;;;;;2.03;1.23;;;8.20;99.90;;;;;;5015310;28;20195;-72
2023/01/06 07:30:29;;;;;;;2.33;1.10;;;8.20;99.90;;;;;;5034202;28;20568;-71
2023/01/06 07:32:55;;;;;;;1.53;0.80;;;8.20;99.90;;;;;;5033806;28;21016;-72
2023/01/06 07:35:21;;;;;;;1.87;1.00;;;8.20;99.90;;;;;;5034575;28;20212;-72
2023/01/06 07:37:46;;;;;;;1.60;0.87;;;8.20;99.90;;;;;;5034193;28;20265;-72
2023/01/06 07:40:13;;;;;;;4.30;1.13;;;8.30;99.90;;;;;;5034635;28;20190;-72
2023/01/06 07:42:38;;;;;;;2.17;0.90;;;8.30;99.90;;;;;;5032585;28;20324;-73
2023/01/06 07:45:06;;;;;;;3.33;1.37;;;8.20;99.90;;;;;;5014015;28;20879;-73
2023/01/06 07:47:32;;;;;;;1.77;0.97;;;8.20;99.90;;;;;;5028637;28;20186;-72
2023/01/06 07:49:57;;;;;;;1.77;1.10;;;8.20;99.90;;;;;;5034051;28;20515;-72
2023/01/06 07:52:23;;;;;;;2.47;0.83;;;8.20;99.90;;;;;;5032950;28;20186;-73
2023/01/06 07:54:48;;;;;;;4.40;1.47;;;8.20;99.90;;;;;;5034030;28;20182;-73
2023/01/06 07:57:14;;;;;;;2.43;0.90;;;8.20;99.90;;;;;;5020272;28;20266;-72
2023/01/06 07:59:39;;;;;;;1.40;0.80;;;8.20;99.90;;;;;;5013578;28;20765;-72
2023/01/06 08:02:05;;;;;;;2.37;1.20;;;8.20;99.90;;;;;;5018812;28;20257;-72
2023/01/06 08:04:34;;;;;;;1.40;0.80;;;8.10;99.90;;;;;;5021143;28;20548;-72
2023/01/06 08:07:00;;;;;;;2.50;0.93;;;8.30;99.90;;;;;;5020457;28;20206;-72
2023/01/06 08:09:25;;;;;;;2.37;0.97;;;8.10;99.90;;;;;;5032274;28;20460;-69
2023/01/06 08:11:51;;;;;;;2.03;0.80;;;8.10;99.90;;;;;;5032897;28;20186;-69
2023/01/06 08:14:16;;;;;;;1.60;0.90;;;8.10;99.90;;;;;;5033069;28;20669;-69
2023/01/06 08:16:42;;;;;;;1.80;0.83;;;8.10;99.90;;;;;;5033061;28;20228;-69
2023/01/06 08:19:07;;;;;;;1.40;0.77;;;8.10;99.90;;;;;;5033250;28;20188;-69
2023/01/06 08:21:33;;;;;;;1.60;0.90;;;8.20;99.90;;;;;;5020384;28;20248;-73
2023/01/06 08:23:58;;;;;;;2.17;1.20;;;8.10;99.90;;;;;;5033046;28;20186;-72
2023/01/06 08:26:24;;;;;;;28.43;1.13;;;8.20;99.90;;;;;;5027846;28;20579;-72
2023/01/06 08:28:50;;;;;;;1.80;0.90;;;8.20;99.90;;;;;;5018568;28;20183;-72
2023/01/06 08:31:19;;;;;;;2.07;0.93;;;8.20;99.90;;;;;;5027515;28;20717;-72
2023/01/06 08:33:44;;;;;;;3.50;1.00;;;8.20;99.90;;;;;;5032846;28;20425;-72
2023/01/06 08:36:17;;;;;;;1.30;0.70;;;8.20;99.90;;;;;;5032940;28;20773;-72
2023/01/06 08:38:43;;;;;;;4.20;1.33;;;8.30;99.90;;;;;;5031978;28;20421;-72
2023/01/06 08:41:10;;;;;;;2.10;1.30;;;8.30;99.90;;;;;;5032288;28;20436;-73
2023/01/06 08:43:37;;;;;;;2.17;1.23;;;8.40;99.90;;;;;;5031613;28;20449;-72
2023/01/06 08:46:05;;;;;;;2.07;1.03;;;8.40;99.90;;;;;;5018921;28;20965;-73
2023/01/06 08:48:32;;;;;;;8.17;0.90;;;8.40;99.90;;;;;;5032282;28;20425;-72
2023/01/06 08:51:19;;;;;;;2.07;0.60;;;8.50;99.90;;;;;;5031591;28;20519;-71
2023/01/06 08:53:46;;;;;;;1.60;0.60;;;8.50;99.90;;;;;;5030186;28;20494;-71
2023/01/06 08:56:18;;;;;;;1.27;0.67;;;8.60;99.90;;;;;;5018671;28;20417;-72
2023/01/06 08:58:44;;;;;;;1.70;0.90;;;8.60;99.90;;;;;;5018065;28;20449;-72
2023/01/06 09:01:17;;;;;;;1.20;0.60;;;8.60;99.90;;;;;;5011580;28;20941;-71
2023/01/06 09:03:43;;;;;;;1.20;0.60;;;8.70;99.90;;;;;;5011507;28;20808;-71
2023/01/06 09:06:09;;;;;;;2.10;1.40;;;8.70;99.90;;;;;;5016229;28;20429;-72
2023/01/06 09:08:35;;;;;;;2.27;1.30;;;8.70;99.90;;;;;;5031789;28;20795;-72
2023/01/06 09:11:08;;;;;;;1.30;0.60;;;8.70;99.90;;;;;;5030785;28;20217;-72
2023/01/06 09:13:34;;;;;;;1.70;0.87;;;8.70;99.90;;;;;;5017077;28;20539;-72
2023/01/06 09:16:01;;;;;;;1.20;0.60;;;8.80;99.90;;;;;;5031170;28;20428;-72
2023/01/06 09:18:26;;;;;;;1.60;0.70;;;8.80;99.90;;;;;;5031749;28;20428;-72
2023/01/06 09:20:52;;;;;;;3.17;0.90;;;8.70;99.90;;;;;;5031614;28;20425;-72
2023/01/06 09:23:17;;;;;;;1.20;0.70;;;8.60;99.90;;;;;;5028962;28;20182;-72
2023/01/06 09:25:43;;;;;;;1.37;0.57;;;8.60;99.90;;;;;;5011867;28;20670;-72
2023/01/06 09:28:09;;;;;;;1.43;0.50;;;8.50;99.90;;;;;;5013300;28;20546;-72
2023/01/06 09:30:35;;;;;;;1.20;0.63;;;8.50;99.90;;;;;;5028569;28;20217;-73
2023/01/06 09:33:00;;;;;;;1.30;0.50;;;8.50;99.90;;;;;;5029239;28;20186;-73
2023/01/06 09:35:26;;;;;;;1.77;0.80;;;8.40;99.90;;;;;;5019731;28;20182;-73
2023/01/06 09:37:51;;;;;;;1.63;0.70;;;8.40;99.90;;;;;;5014330;28;20278;-73
2023/01/06 09:40:24;;;;;;;7.83;0.77;;;8.40;99.90;;;;;;5031127;28;20553;-73
2023/01/06 09:43:05;;;;;;;1.40;0.60;;;8.40;99.90;;;;;;5017263;28;20523;-71
2023/01/06 09:45:43;;;;;;;1.33;0.60;;;8.50;99.90;;;;;;5019919;28;20969;-72
2023/01/06 09:48:15;;;;;;;2.00;0.93;;;8.50;99.90;;;;;;5030328;28;20474;-71
2023/01/06 09:50:54;;;;;;;1.40;0.70;;;8.50;99.90;;;;;;5030933;28;20465;-67
2023/01/06 09:53:24;;;;;;;4.27;1.03;;;8.60;99.90;;;;;;5030523;28;20417;-70
2023/01/06 09:55:59;;;;;;;2.03;0.93;;;8.60;99.90;;;;;;5027928;28;20444;-67
2023/01/06 09:58:36;;;;;;;3.23;1.40;;;8.70;99.90;;;;;;5016290;28;20471;-64
2023/01/06 10:01:07;;;;;;;2.03;1.00;;;8.80;99.90;;;;;;5014776;28;20429;-64
2023/01/06 10:03:33;;;;;;;2.80;1.03;;;8.90;99.90;;;;;;5023111;28;20629;-63
2023/01/06 10:06:37;;;;;;;1.60;0.67;;;9.00;99.90;;;;;;5030859;28;20455;-64
2023/01/06 10:09:06;;;;;;;1.97;1.30;;;9.10;99.90;;;;;;5030013;28;20202;-66
2023/01/06 10:11:50;;;;;;;2.37;1.10;;;9.30;99.90;;;;;;5029479;28;20468;-64
2023/01/06 10:14:25;;;;;;;2.07;1.33;;;9.50;99.90;;;;;;5030203;28;20913;-64
2023/01/06 10:16:59;;;;;;;1.83;0.83;;;9.70;99.90;;;;;;5029419;28;20451;-64
2023/01/06 10:19:45;;;;;;;1.10;0.50;;;9.80;99.90;;;;;;5030533;28;20421;-65
2023/01/06 10:22:28;;;;;;;1.30;0.57;;;9.70;99.90;;;;;;5018618;28;20425;-68
2023/01/06 10:25:42;;;;;;;4.90;0.90;;;9.60;99.90;;;;;;5028846;28;20537;-66
2023/01/06 10:28:18;;;;;;;1.10;0.50;;;9.50;99.90;;;;;;4981383;28;20429;-64
2023/01/06 10:30:46;;;;;;;1.20;0.53;;;9.50;99.90;;;;;;5029831;28;20479;-65
2023/01/06 10:33:22;;;;;;;1.70;0.70;;;9.50;99.90;;;;;;5029624;28;20440;-65
2023/01/06 10:35:49;;;;;;;1.50;0.70;;;9.50;99.90;;;;;;5014268;28;20416;-70
2023/01/06 10:38:15;;;;;;;2.17;0.70;;;9.50;99.90;;;;;;5030547;28;20471;-63
2023/01/06 10:40:41;;;;;;;2.27;0.80;;;9.60;99.90;;;;;;5030162;28;20504;-62
2023/01/06 10:43:12;;;;;;;1.10;0.50;;;9.60;99.90;;;;;;5011386;28;20881;-63
2023/01/06 10:45:45;;;;;;;1.70;0.90;;;9.60;99.90;;;;;;5010558;28;20309;-66
2023/01/06 10:48:25;;;;;;;2.27;0.80;;;9.60;99.90;;;;;;5004740;28;20413;-63
2023/01/06 10:50:51;;;;;;;1.20;0.50;;;9.60;99.90;;;;;;5030322;28;20539;-66
2023/01/06 10:53:16;;;;;;;1.20;0.50;;;9.60;99.90;;;;;;5029545;28;20575;-74
2023/01/06 10:55:54;;;;;;;1.43;0.67;;;9.60;99.90;;;;;;5029365;28;20194;-73
2023/01/06 10:58:39;;;;;;;1.10;0.43;;;9.60;99.90;;;;;;5016734;28;20530;-69
2023/01/06 11:01:09;;;;;;;1.30;0.50;;;9.70;99.90;;;;;;5014836;28;20417;-66
2023/01/06 11:03:35;;;;;;;2.30;0.87;;;9.70;99.90;;;;;;5023032;28;20456;-66
2023/01/06 11:06:09;;;;;;;1.20;0.50;;;9.70;99.90;;;;;;5002245;28;20555;-66
2023/01/06 11:08:36;;;;;;;1.10;0.40;;;9.70;99.90;;;;;;5026066;28;20441;-68
2023/01/06 11:11:08;;;;;;;1.10;0.40;;;9.80;99.90;;;;;;5021938;28;20464;-73
2023/01/06 11:13:35;;;;;;;1.20;0.50;;;9.90;99.90;;;;;;5030051;28;20789;-73
2023/01/06 11:16:05;;;;;;;1.40;0.60;;;9.90;99.90;;;;;;5022376;28;20413;-73
2023/01/06 11:18:33;;;;;;;1.43;0.60;;;10.00;99.90;;;;;;5033796;28;20413;-72
2023/01/06 11:21:13;;;;;;;1.37;0.60;;;10.00;99.90;;;;;;5024238;28;20429;-75
2023/01/06 11:23:40;;;;;;;2.30;0.70;;;10.00;99.90;;;;;;5023834;28;20456;-75
2023/01/06 11:26:22;;;;;;;1.10;0.50;;;10.10;99.90;;;;;;5018449;28;20430;-73
2023/01/06 11:28:52;;;;;;;1.40;0.60;;;10.10;99.90;;;;;;5016086;28;20428;-71
2023/01/06 11:31:21;;;;;;;1.60;0.70;;;10.10;99.90;;;;;;5033022;28;20468;-71
2023/01/06 11:33:54;;;;;;;1.77;0.47;;;10.10;99.90;;;;;;5033715;28;20447;-75
2023/01/06 11:36:22;;;;;;;2.13;0.50;;;10.10;99.90;;;;;;5033216;28;20475;-71
2023/01/06 11:38:54;;;;;;;2.57;0.70;;;10.10;99.90;;;;;;5033835;28;20417;-71
2023/01/06 11:41:29;;;;;;;2.00;0.80;;;10.10;99.90;;;;;;5033326;28;20418;-75
2023/01/06 11:44:16;;;;;;;1.30;0.50;;;10.10;99.90;;;;;;5022615;28;20417;-74
2023/01/06 11:46:49;;;;;;;1.80;0.70;;;10.00;99.90;;;;;;5001850;28;20508;-77
2023/01/06 11:49:25;;;;;;;1.47;0.63;;;10.00;99.90;;;;;;5026806;28;20496;-74
2023/01/06 11:51:59;;;;;;;1.30;0.60;;;10.00;99.90;;;;;;5023525;28;20421;-75
2023/01/06 11:54:25;;;;;;;1.40;0.67;;;10.00;99.90;;;;;;5033370;28;20462;-75
2023/01/06 11:57:19;;;;;;;1.43;0.60;;;10.00;99.90;;;;;;5021952;28;20426;-75
2023/01/06 12:00:00;;;;;;;2.27;0.80;;;10.00;99.90;;;;;;5013321;28;20266;-75
2023/01/06 12:02:45;;;;;;;1.20;0.70;;;10.10;99.90;;;;;;5017466;28;20405;-74
2023/01/06 12:05:31;;;;;;;1.87;0.60;;;10.20;99.90;;;;;;5019358;28;20421;-74
2023/01/06 12:07:57;;;;;;;2.07;0.80;;;10.20;99.90;;;;;;5023203;28;20794;-74
2023/01/06 12:10:29;;;;;;;2.70;0.97;;;10.20;99.90;;;;;;5020102;28;20602;-74
2023/01/06 12:12:55;;;;;;;2.57;1.20;;;10.20;99.90;;;;;;5032942;28;20431;-75
2023/01/06 12:15:21;;;;;;;2.07;0.83;;;10.20;99.90;;;;;;5018346;28;20405;-75
2023/01/06 12:18:01;;;;;;;1.50;0.70;;;10.20;99.90;;;;;;5032841;28;20266;-74
2023/01/06 12:20:31;;;;;;;1.20;0.60;;;10.10;99.90;;;;;;5027749;28;20418;-74
2023/01/06 12:22:59;;;;;;;2.07;0.60;;;10.10;99.90;;;;;;5024725;28;20544;-74
2023/01/06 12:25:28;;;;;;;1.20;0.50;;;10.20;99.90;;;;;;5029267;28;20428;-75
2023/01/06 12:28:03;;;;;;;2.90;1.10;;;10.20;99.90;;;;;;5018536;28;20410;-74
2023/01/06 12:30:32;;;;;;;2.17;0.80;;;10.20;99.90;;;;;;5008521;28;20547;-74
2023/01/06 12:33:10;;;;;;;1.50;0.77;;;10.20;99.90;;;;;;5032046;28;20449;-74
2023/01/06 12:35:40;;;;;;;3.00;1.00;;;10.30;99.90;;;;;;5015074;28;20921;-73
2023/01/06 12:38:21;;;;;;;2.00;0.97;;;10.20;99.90;;;;;;5029212;28;20938;-74
2023/01/06 12:40:56;;;;;;;1.30;0.60;;;10.30;99.90;;;;;;5024958;28;20417;-74
2023/01/06 12:43:27;;;;;;;1.20;0.53;;;10.30;99.90;;;;;;5031766;28;20467;-73
2023/01/06 12:46:14;;;;;;;1.17;0.40;;;10.20;99.90;;;;;;5019037;28;20861;-74
2023/01/06 12:48:55;;;;;;;1.30;0.60;;;10.20;99.90;;;;;;5032453;28;20409;-74
2023/01/06 12:51:30;;;;;;;1.50;0.50;;;10.20;99.90;;;;;;5031986;28;20475;-73
2023/01/06 12:54:01;;;;;;;1.10;0.40;;;10.10;99.90;;;;;;5016494;28;20775;-73
2023/01/06 12:56:41;;;;;;;1.87;0.63;;;10.10;99.90;;;;;;5012812;28;20478;-73
2023/01/06 12:59:34;;;;;;;2.90;0.80;;;10.00;99.90;;;;;;5017351;28;20402;-73
2023/01/06 13:02:03;;;;;;;1.40;0.73;;;10.00;99.90;;;;;;5024688;28;20785;-73
2023/01/06 13:04:47;;;;;;;1.73;0.80;;;9.90;99.90;;;;;;5025475;28;20422;-73
2023/01/06 13:07:20;;;;;;;1.57;0.90;;;9.90;99.90;;;;;;5027619;28;20417;-73
2023/01/06 13:09:52;;;;;;;2.03;0.80;;;9.90;99.90;;;;;;5032002;28;20507;-73
2023/01/06 13:12:35;;;;;;;1.23;0.53;;;9.90;99.90;;;;;;5031980;28;20479;-72
2023/01/06 13:15:12;;;;;;;1.20;0.50;;;9.90;99.90;;;;;;5030881;28;20414;-72